sensor_id;sensor_type;location;lat;lon;timestamp;temperature;humidity
25208;DHT22;13153;52.316;21.166;2022-12-20T00:01:16;-2.00;99.90
25208;DHT22;13153;52.316;21.166;2022-12-20T00:03:54;-1.90;99.90
25208;DHT22;13153;52.316;21.166;2022-12-20T00:06:22;-2.00;99.90
25208;DHT22;13153;52.316;21.166;2022-12-20T00:09:00;-1.90;99.90
25208;DHT22;13153;52.316;21.166;2022-12-20T00:11:28;-1.90;99.90
25208;DHT22;13153;52.316;21.166;2022-12-20T00:13:54;-1.90;99.90
25208;DHT22;13153;52.316;21.166;2022-12-20T00:16:26;-1.90;99.90
25208;DHT22;13153;52.316;21.166;2022-12-20T00:18:55;-1.80;99.90
25208;DHT22;13153;52.316;21.166;2022-12-20T00:21:23;-1.80;99.90
25208;DHT22;13153;52.316;21.166;2022-12-20T00:23:50;-1.80;99.90
25208;DHT22;13153;52.316;21.166;2022-12-20T00:26:19;-1.70;99.90
25208;DHT22;13153;52.316;21.166;2022-12-20T00:28:46;-1.70;99.90
25208;DHT22;13153;52.316;21.166;2022-12-20T00:31:13;-1.70;99.90
25208;DHT22;13153;52.316;21.166;2022-12-20T00:33:43;-1.70;99.90
25208;DHT22;13153;52.316;21.166;2022-12-20T00:36:10;-1.60;99.90
25208;DHT22;13153;52.316;21.166;2022-12-20T00:38:36;-1.60;99.90
25208;DHT22;13153;52.316;21.166;2022-12-20T00:41:06;-1.60;99.90
25208;DHT22;13153;52.316;21.166;2022-12-20T00:43:33;-1.60;99.90
25208;DHT22;13153;52.316;21.166;2022-12-20T00:46:00;-1.60;99.90
25208;DHT22;13153;52.316;21.166;2022-12-20T00:48:27;-1.60;99.90
25208;DHT22;13153;52.316;21.166;2022-12-20T00:51:02;-1.60;99.90
25208;DHT22;13153;52.316;21.166;2022-12-20T00:53:31;-1.60;99.90
25208;DHT22;13153;52.316;21.166;2022-12-20T00:55:58;-1.50;99.90
25208;DHT22;13153;52.316;21.166;2022-12-20T00:58:25;-1.50;99.90
25208;DHT22;13153;52.316;21.166;2022-12-20T01:00:52;-1.50;99.90
25208;DHT22;13153;52.316;21.166;2022-12-20T01:03:18;-1.50;99.90
25208;DHT22;13153;52.316;21.166;2022-12-20T01:05:56;-1.50;99.90
25208;DHT22;13153;52.316;21.166;2022-12-20T01:08:25;-1.50;99.90
25208;DHT22;13153;52.316;21.166;2022-12-20T01:11:06;-1.50;99.90
25208;DHT22;13153;52.316;21.166;2022-12-20T01:13:36;-1.40;99.90
25208;DHT22;13153;52.316;21.166;2022-12-20T01:16:15;-1.40;99.90
25208;DHT22;13153;52.316;21.166;2022-12-20T01:18:42;-1.40;99.90
25208;DHT22;13153;52.316;21.166;2022-12-20T01:21:10;-1.40;99.90
25208;DHT22;13153;52.316;21.166;2022-12-20T01:23:37;-1.40;99.90
25208;DHT22;13153;52.316;21.166;2022-12-20T01:26:06;-1.40;99.90
25208;DHT22;13153;52.316;21.166;2022-12-20T01:28:36;-1.40;99.90
25208;DHT22;13153;52.316;21.166;2022-12-20T01:31:10;-1.40;99.90
25208;DHT22;13153;52.316;21.166;2022-12-20T01:33:39;-1.30;99.90
25208;DHT22;13153;52.316;21.166;2022-12-20T01:36:10;-1.30;99.90
25208;DHT22;13153;52.316;21.166;2022-12-20T01:38:38;-1.30;99.90
25208;DHT22;13153;52.316;21.166;2022-12-20T01:41:05;-1.30;99.90
25208;DHT22;13153;52.316;21.166;2022-12-20T01:43:57;-1.30;99.90
25208;DHT22;13153;52.316;21.166;2022-12-20T01:46:29;-1.30;99.90
25208;DHT22;13153;52.316;21.166;2022-12-20T01:49:13;-1.20;99.90
25208;DHT22;13153;52.316;21.166;2022-12-20T01:51:44;-1.20;99.90
25208;DHT22;13153;52.316;21.166;2022-12-20T01:54:16;-1.20;99.90
25208;DHT22;13153;52.316;21.166;2022-12-20T01:56:51;-1.20;99.90
25208;DHT22;13153;52.316;21.166;2022-12-20T01:59:23;-1.10;99.90
25208;DHT22;13153;52.316;21.166;2022-12-20T02:01:50;-1.10;99.90
25208;DHT22;13153;52.316;21.166;2022-12-20T02:04:16;-1.10;99.90
25208;DHT22;13153;52.316;21.166;2022-12-20T02:06:42;-1.10;99.90
25208;DHT22;13153;52.316;21.166;2022-12-20T02:09:08;-1.10;99.90
25208;DHT22;13153;52.316;21.166;2022-12-20T02:17:35;-1.00;99.90
25208;DHT22;13153;52.316;21.166;2022-12-20T02:20:53;-1.00;99.90
25208;DHT22;13153;52.316;21.166;2022-12-20T02:24:01;-1.00;99.90
25208;DHT22;13153;52.316;21.166;2022-12-20T02:32:32;-0.90;99.90
25208;DHT22;13153;52.316;21.166;2022-12-20T02:35:06;-0.80;99.90
25208;DHT22;13153;52.316;21.166;2022-12-20T02:37:33;-0.80;99.90
25208;DHT22;13153;52.316;21.166;2022-12-20T02:40:00;-0.80;99.90
25208;DHT22;13153;52.316;21.166;2022-12-20T02:42:27;-0.70;99.90
25208;DHT22;13153;52.316;21.166;2022-12-20T02:45:04;-0.70;99.90
25208;DHT22;13153;52.316;21.166;2022-12-20T02:50:34;-0.60;99.90
25208;DHT22;13153;52.316;21.166;2022-12-20T02:53:04;-0.60;99.90
25208;DHT22;13153;52.316;21.166;2022-12-20T02:56:04;-0.60;99.90
25208;DHT22;13153;52.316;21.166;2022-12-20T02:59:00;-0.60;99.90
25208;DHT22;13153;52.316;21.166;2022-12-20T03:01:36;-0.50;99.90
25208;DHT22;13153;52.316;21.166;2022-12-20T03:04:06;-0.50;99.90
25208;DHT22;13153;52.316;21.166;2022-12-20T03:06:32;-0.40;99.90
25208;DHT22;13153;52.316;21.166;2022-12-20T03:08:58;-0.40;99.90
25208;DHT22;13153;52.316;21.166;2022-12-20T03:11:24;-0.40;99.90
25208;DHT22;13153;52.316;21.166;2022-12-20T03:13:50;-0.40;99.90
25208;DHT22;13153;52.316;21.166;2022-12-20T03:16:16;-0.40;99.90
25208;DHT22;13153;52.316;21.166;2022-12-20T03:18:41;-0.30;99.90
25208;DHT22;13153;52.316;21.166;2022-12-20T03:21:09;-0.30;99.90
25208;DHT22;13153;52.316;21.166;2022-12-20T03:23:35;-0.30;99.90
25208;DHT22;13153;52.316;21.166;2022-12-20T03:26:01;-0.20;99.90
25208;DHT22;13153;52.316;21.166;2022-12-20T03:28:26;-0.20;99.90
25208;DHT22;13153;52.316;21.166;2022-12-20T03:30:52;-0.20;99.90
25208;DHT22;13153;52.316;21.166;2022-12-20T03:33:18;-0.10;99.90
25208;DHT22;13153;52.316;21.166;2022-12-20T03:35:44;-0.10;99.90
25208;DHT22;13153;52.316;21.166;2022-12-20T03:38:11;0.00;99.90
25208;DHT22;13153;52.316;21.166;2022-12-20T03:40:37;0.00;99.90
25208;DHT22;13153;52.316;21.166;2022-12-20T03:43:02;0.00;99.90
25208;DHT22;13153;52.316;21.166;2022-12-20T03:45:28;0.00;99.90
25208;DHT22;13153;52.316;21.166;2022-12-20T03:47:55;0.00;99.90
25208;DHT22;13153;52.316;21.166;2022-12-20T03:50:20;0.00;99.90
25208;DHT22;13153;52.316;21.166;2022-12-20T03:52:46;0.00;99.90
25208;DHT22;13153;52.316;21.166;2022-12-20T03:55:12;0.00;99.90
25208;DHT22;13153;52.316;21.166;2022-12-20T03:57:38;0.10;99.90
25208;DHT22;13153;52.316;21.166;2022-12-20T04:00:04;0.10;99.90
25208;DHT22;13153;52.316;21.166;2022-12-20T04:02:31;0.10;99.90
25208;DHT22;13153;52.316;21.166;2022-12-20T04:04:56;0.10;99.90
25208;DHT22;13153;52.316;21.166;2022-12-20T04:07:22;0.10;99.90
25208;DHT22;13153;52.316;21.166;2022-12-20T04:09:48;0.10;99.90
25208;DHT22;13153;52.316;21.166;2022-12-20T04:12:13;0.20;99.90
25208;DHT22;13153;52.316;21.166;2022-12-20T04:14:39;0.20;99.90
25208;DHT22;13153;52.316;21.166;2022-12-20T04:17:05;0.20;99.90
25208;DHT22;13153;52.316;21.166;2022-12-20T04:19:31;0.20;99.90
25208;DHT22;13153;52.316;21.166;2022-12-20T04:21:57;0.20;99.90
25208;DHT22;13153;52.316;21.166;2022-12-20T04:24:23;0.20;99.90
25208;DHT22;13153;52.316;21.166;2022-12-20T04:26:49;0.30;99.90
25208;DHT22;13153;52.316;21.166;2022-12-20T04:29:15;0.30;99.90
25208;DHT22;13153;52.316;21.166;2022-12-20T04:31:41;0.20;99.90
25208;DHT22;13153;52.316;21.166;2022-12-20T04:34:06;0.30;99.90
25208;DHT22;13153;52.316;21.166;2022-12-20T04:36:32;0.30;99.90
25208;DHT22;13153;52.316;21.166;2022-12-20T04:38:58;0.30;99.90
25208;DHT22;13153;52.316;21.166;2022-12-20T04:41:24;0.30;99.90
25208;DHT22;13153;52.316;21.166;2022-12-20T04:43:53;0.30;99.90
25208;DHT22;13153;52.316;21.166;2022-12-20T04:46:22;0.30;99.90
25208;DHT22;13153;52.316;21.166;2022-12-20T04:48:49;0.30;99.90
25208;DHT22;13153;52.316;21.166;2022-12-20T04:51:16;0.30;99.90
25208;DHT22;13153;52.316;21.166;2022-12-20T04:53:42;0.30;99.90
25208;DHT22;13153;52.316;21.166;2022-12-20T04:56:19;0.30;99.90
25208;DHT22;13153;52.316;21.166;2022-12-20T04:58:47;0.30;99.90
25208;DHT22;13153;52.316;21.166;2022-12-20T05:01:15;0.40;99.90
25208;DHT22;13153;52.316;21.166;2022-12-20T05:03:41;0.40;99.90
25208;DHT22;13153;52.316;21.166;2022-12-20T05:06:07;0.30;99.90
25208;DHT22;13153;52.316;21.166;2022-12-20T05:08:34;0.40;99.90
25208;DHT22;13153;52.316;21.166;2022-12-20T05:11:01;0.40;99.90
25208;DHT22;13153;52.316;21.166;2022-12-20T05:13:27;0.40;99.90
25208;DHT22;13153;52.316;21.166;2022-12-20T05:15:55;0.40;99.90
25208;DHT22;13153;52.316;21.166;2022-12-20T05:18:21;0.40;99.90
25208;DHT22;13153;52.316;21.166;2022-12-20T05:20:48;0.40;99.90
25208;DHT22;13153;52.316;21.166;2022-12-20T05:23:34;0.40;99.90
25208;DHT22;13153;52.316;21.166;2022-12-20T05:26:19;0.40;99.90
25208;DHT22;13153;52.316;21.166;2022-12-20T05:28:45;0.40;99.90
25208;DHT22;13153;52.316;21.166;2022-12-20T05:31:11;0.40;99.90
25208;DHT22;13153;52.316;21.166;2022-12-20T05:33:36;0.40;99.90
25208;DHT22;13153;52.316;21.166;2022-12-20T05:36:02;0.40;99.90
25208;DHT22;13153;52.316;21.166;2022-12-20T05:38:28;0.40;99.90
25208;DHT22;13153;52.316;21.166;2022-12-20T05:40:54;0.40;99.90
25208;DHT22;13153;52.316;21.166;2022-12-20T05:43:19;0.40;99.90
25208;DHT22;13153;52.316;21.166;2022-12-20T05:45:52;0.50;99.90
25208;DHT22;13153;52.316;21.166;2022-12-20T05:48:19;0.50;99.90
25208;DHT22;13153;52.316;21.166;2022-12-20T05:50:45;0.50;99.90
25208;DHT22;13153;52.316;21.166;2022-12-20T05:53:12;0.50;99.90
25208;DHT22;13153;52.316;21.166;2022-12-20T05:55:48;0.50;99.90
25208;DHT22;13153;52.316;21.166;2022-12-20T05:58:15;0.50;99.90
25208;DHT22;13153;52.316;21.166;2022-12-20T06:00:42;0.50;99.90
25208;DHT22;13153;52.316;21.166;2022-12-20T06:03:09;0.50;99.90
25208;DHT22;13153;52.316;21.166;2022-12-20T06:05:45;0.50;99.90
25208;DHT22;13153;52.316;21.166;2022-12-20T06:08:11;0.60;99.90
25208;DHT22;13153;52.316;21.166;2022-12-20T06:10:39;0.50;99.90
25208;DHT22;13153;52.316;21.166;2022-12-20T06:13:07;0.60;99.90
25208;DHT22;13153;52.316;21.166;2022-12-20T06:15:33;0.50;99.90
25208;DHT22;13153;52.316;21.166;2022-12-20T06:17:59;0.60;99.90
25208;DHT22;13153;52.316;21.166;2022-12-20T06:20:25;0.60;99.90
25208;DHT22;13153;52.316;21.166;2022-12-20T06:22:52;0.60;99.90
25208;DHT22;13153;52.316;21.166;2022-12-20T06:25:18;0.60;99.90
25208;DHT22;13153;52.316;21.166;2022-12-20T06:27:44;0.60;99.90
25208;DHT22;13153;52.316;21.166;2022-12-20T06:30:11;0.60;99.90
25208;DHT22;13153;52.316;21.166;2022-12-20T06:32:37;0.60;99.90
25208;DHT22;13153;52.316;21.166;2022-12-20T06:35:04;0.60;99.90
25208;DHT22;13153;52.316;21.166;2022-12-20T06:37:30;0.60;99.90
25208;DHT22;13153;52.316;21.166;2022-12-20T06:39:56;0.60;99.90
25208;DHT22;13153;52.316;21.166;2022-12-20T06:42:23;0.60;99.90
25208;DHT22;13153;52.316;21.166;2022-12-20T06:44:49;0.60;99.90
25208;DHT22;13153;52.316;21.166;2022-12-20T06:47:14;0.60;99.90
25208;DHT22;13153;52.316;21.166;2022-12-20T06:49:40;0.70;99.90
25208;DHT22;13153;52.316;21.166;2022-12-20T06:52:06;0.60;99.90
25208;DHT22;13153;52.316;21.166;2022-12-20T06:54:32;0.70;99.90
25208;DHT22;13153;52.316;21.166;2022-12-20T06:56:57;0.70;99.90
25208;DHT22;13153;52.316;21.166;2022-12-20T06:59:23;0.70;99.90
25208;DHT22;13153;52.316;21.166;2022-12-20T07:01:49;0.70;99.90
25208;DHT22;13153;52.316;21.166;2022-12-20T07:04:15;0.70;99.90
25208;DHT22;13153;52.316;21.166;2022-12-20T07:06:41;0.70;99.90
25208;DHT22;13153;52.316;21.166;2022-12-20T07:09:06;0.70;99.90
25208;DHT22;13153;52.316;21.166;2022-12-20T07:11:33;0.70;99.90
25208;DHT22;13153;52.316;21.166;2022-12-20T07:13:59;0.70;99.90
25208;DHT22;13153;52.316;21.166;2022-12-20T07:16:25;0.80;99.90
25208;DHT22;13153;52.316;21.166;2022-12-20T07:18:54;0.80;99.90
25208;DHT22;13153;52.316;21.166;2022-12-20T07:21:20;0.80;99.90
25208;DHT22;13153;52.316;21.166;2022-12-20T07:23:46;0.80;99.90
25208;DHT22;13153;52.316;21.166;2022-12-20T07:26:12;0.80;99.90
25208;DHT22;13153;52.316;21.166;2022-12-20T07:28:39;0.80;99.90
25208;DHT22;13153;52.316;21.166;2022-12-20T07:31:06;0.90;99.90
25208;DHT22;13153;52.316;21.166;2022-12-20T07:33:32;0.90;99.90
25208;DHT22;13153;52.316;21.166;2022-12-20T07:36:06;0.90;99.90
25208;DHT22;13153;52.316;21.166;2022-12-20T07:38:35;0.90;99.90
25208;DHT22;13153;52.316;21.166;2022-12-20T07:41:15;1.00;99.90
25208;DHT22;13153;52.316;21.166;2022-12-20T07:43:43;1.00;99.90
25208;DHT22;13153;52.316;21.166;2022-12-20T07:46:14;1.00;99.90
25208;DHT22;13153;52.316;21.166;2022-12-20T07:48:41;1.00;99.90
25208;DHT22;13153;52.316;21.166;2022-12-20T07:51:17;1.00;99.90
25208;DHT22;13153;52.316;21.166;2022-12-20T07:53:53;1.10;99.90
25208;DHT22;13153;52.316;21.166;2022-12-20T07:56:25;1.10;99.90
25208;DHT22;13153;52.316;21.166;2022-12-20T07:58:55;1.10;99.90
25208;DHT22;13153;52.316;21.166;2022-12-20T08:01:25;1.10;99.90
25208;DHT22;13153;52.316;21.166;2022-12-20T08:03:55;1.20;99.90
25208;DHT22;13153;52.316;21.166;2022-12-20T08:06:27;1.20;99.90
25208;DHT22;13153;52.316;21.166;2022-12-20T08:08:57;1.20;99.90
25208;DHT22;13153;52.316;21.166;2022-12-20T08:11:28;1.20;99.90
25208;DHT22;13153;52.316;21.166;2022-12-20T08:13:56;1.20;99.90
25208;DHT22;13153;52.316;21.166;2022-12-20T08:16:22;1.20;99.90
25208;DHT22;13153;52.316;21.166;2022-12-20T08:18:47;1.20;99.90
25208;DHT22;13153;52.316;21.166;2022-12-20T08:21:13;1.20;99.90
25208;DHT22;13153;52.316;21.166;2022-12-20T08:23:39;1.30;99.90
25208;DHT22;13153;52.316;21.166;2022-12-20T08:26:05;1.20;99.90
25208;DHT22;13153;52.316;21.166;2022-12-20T08:28:31;1.30;99.90
25208;DHT22;13153;52.316;21.166;2022-12-20T08:31:04;1.30;99.90
25208;DHT22;13153;52.316;21.166;2022-12-20T08:33:33;1.30;99.90
25208;DHT22;13153;52.316;21.166;2022-12-20T08:36:02;1.30;99.90
25208;DHT22;13153;52.316;21.166;2022-12-20T08:38:30;1.40;99.90
25208;DHT22;13153;52.316;21.166;2022-12-20T08:43:30;1.50;99.90
25208;DHT22;13153;52.316;21.166;2022-12-20T08:45:57;1.50;99.90
25208;DHT22;13153;52.316;21.166;2022-12-20T08:48:22;1.50;99.90
25208;DHT22;13153;52.316;21.166;2022-12-20T08:50:59;1.60;99.90
25208;DHT22;13153;52.316;21.166;2022-12-20T08:53:28;1.70;99.90
25208;DHT22;13153;52.316;21.166;2022-12-20T08:56:12;1.60;99.90
25208;DHT22;13153;52.316;21.166;2022-12-20T08:58:41;1.70;99.90
25208;DHT22;13153;52.316;21.166;2022-12-20T09:01:10;1.80;99.90
25208;DHT22;13153;52.316;21.166;2022-12-20T09:03:38;1.80;99.90
25208;DHT22;13153;52.316;21.166;2022-12-20T09:06:06;1.80;99.90
25208;DHT22;13153;52.316;21.166;2022-12-20T09:08:34;1.90;99.90
25208;DHT22;13153;52.316;21.166;2022-12-20T09:11:06;1.90;99.90
25208;DHT22;13153;52.316;21.166;2022-12-20T09:13:53;2.00;99.90
25208;DHT22;13153;52.316;21.166;2022-12-20T09:16:26;2.00;99.90
25208;DHT22;13153;52.316;21.166;2022-12-20T09:18:56;2.10;99.90
25208;DHT22;13153;52.316;21.166;2022-12-20T09:21:23;2.20;99.90
25208;DHT22;13153;52.316;21.166;2022-12-20T09:23:50;2.30;99.90
25208;DHT22;13153;52.316;21.166;2022-12-20T09:26:19;2.50;99.90
25208;DHT22;13153;52.316;21.166;2022-12-20T09:28:45;2.80;99.90
25208;DHT22;13153;52.316;21.166;2022-12-20T09:31:18;3.10;99.90
25208;DHT22;13153;52.316;21.166;2022-12-20T09:33:46;3.40;99.90
25208;DHT22;13153;52.316;21.166;2022-12-20T09:36:17;3.60;99.90
25208;DHT22;13153;52.316;21.166;2022-12-20T09:38:44;3.80;99.90
25208;DHT22;13153;52.316;21.166;2022-12-20T09:41:37;4.00;99.90
25208;DHT22;13153;52.316;21.166;2022-12-20T09:44:13;4.10;99.90
25208;DHT22;13153;52.316;21.166;2022-12-20T09:46:39;4.10;99.90
25208;DHT22;13153;52.316;21.166;2022-12-20T09:49:13;4.10;99.90
25208;DHT22;13153;52.316;21.166;2022-12-20T09:55:00;4.10;99.90
25208;DHT22;13153;52.316;21.166;2022-12-20T09:57:55;4.10;99.90
25208;DHT22;13153;52.316;21.166;2022-12-20T10:00:46;4.20;99.90
25208;DHT22;13153;52.316;21.166;2022-12-20T10:03:28;4.30;99.90
25208;DHT22;13153;52.316;21.166;2022-12-20T10:08:51;4.50;99.90
25208;DHT22;13153;52.316;21.166;2022-12-20T10:17:38;4.60;99.90
25208;DHT22;13153;52.316;21.166;2022-12-20T10:25:55;4.90;99.90
25208;DHT22;13153;52.316;21.166;2022-12-20T10:28:28;4.90;99.90
25208;DHT22;13153;52.316;21.166;2022-12-20T10:31:01;4.80;99.90
25208;DHT22;13153;52.316;21.166;2022-12-20T10:33:30;4.80;99.90
25208;DHT22;13153;52.316;21.166;2022-12-20T10:36:37;4.80;99.90
25208;DHT22;13153;52.316;21.166;2022-12-20T10:39:09;4.70;99.90
25208;DHT22;13153;52.316;21.166;2022-12-20T10:44:26;4.80;99.90
25208;DHT22;13153;52.316;21.166;2022-12-20T10:46:57;4.80;99.90
25208;DHT22;13153;52.316;21.166;2022-12-20T10:49:32;4.80;99.90
25208;DHT22;13153;52.316;21.166;2022-12-20T10:52:00;4.70;99.90
25208;DHT22;13153;52.316;21.166;2022-12-20T10:54:32;4.60;99.90
25208;DHT22;13153;52.316;21.166;2022-12-20T11:02:36;4.30;99.90
25208;DHT22;13153;52.316;21.166;2022-12-20T11:07:37;4.10;99.90
25208;DHT22;13153;52.316;21.166;2022-12-20T11:10:19;4.00;99.90
25208;DHT22;13153;52.316;21.166;2022-12-20T11:13:01;4.00;99.90
25208;DHT22;13153;52.316;21.166;2022-12-20T11:15:30;4.00;99.90
25208;DHT22;13153;52.316;21.166;2022-12-20T11:18:25;3.90;99.90
25208;DHT22;13153;52.316;21.166;2022-12-20T11:21:36;3.90;99.90
25208;DHT22;13153;52.316;21.166;2022-12-20T11:27:26;3.80;99.90
25208;DHT22;13153;52.316;21.166;2022-12-20T11:32:46;3.70;99.90
25208;DHT22;13153;52.316;21.166;2022-12-20T11:38:40;3.70;99.90
25208;DHT22;13153;52.316;21.166;2022-12-20T11:44:30;3.70;99.90
25208;DHT22;13153;52.316;21.166;2022-12-20T11:55:53;3.60;99.90
25208;DHT22;13153;52.316;21.166;2022-12-20T11:58:43;3.50;99.90
25208;DHT22;13153;52.316;21.166;2022-12-20T12:01:18;3.50;99.90
25208;DHT22;13153;52.316;21.166;2022-12-20T12:06:43;3.40;99.90
25208;DHT22;13153;52.316;21.166;2022-12-20T12:09:29;3.30;99.90
25208;DHT22;13153;52.316;21.166;2022-12-20T12:12:14;3.30;99.90
25208;DHT22;13153;52.316;21.166;2022-12-20T12:15:09;3.30;99.90
25208;DHT22;13153;52.316;21.166;2022-12-20T12:17:47;3.30;99.90
25208;DHT22;13153;52.316;21.166;2022-12-20T12:25:37;3.40;99.90
25208;DHT22;13153;52.316;21.166;2022-12-20T12:28:04;3.40;99.90
25208;DHT22;13153;52.316;21.166;2022-12-20T12:30:37;3.50;99.90
25208;DHT22;13153;52.316;21.166;2022-12-20T12:33:27;3.50;99.90
25208;DHT22;13153;52.316;21.166;2022-12-20T12:39:44;3.70;99.90
25208;DHT22;13153;52.316;21.166;2022-12-20T12:45:27;3.80;99.90
25208;DHT22;13153;52.316;21.166;2022-12-20T12:48:00;3.80;99.90
25208;DHT22;13153;52.316;21.166;2022-12-20T12:50:41;3.80;99.90
25208;DHT22;13153;52.316;21.166;2022-12-20T12:53:30;3.90;99.90
25208;DHT22;13153;52.316;21.166;2022-12-20T13:11:53;3.60;99.90
25208;DHT22;13153;52.316;21.166;2022-12-20T13:16:50;3.50;99.90
25208;DHT22;13153;52.316;21.166;2022-12-20T13:21:56;3.50;99.90
25208;DHT22;13153;52.316;21.166;2022-12-20T13:24:38;3.50;99.90
25208;DHT22;13153;52.316;21.166;2022-12-20T13:27:25;3.50;99.90
25208;DHT22;13153;52.316;21.166;2022-12-20T13:32:54;3.50;99.90
25208;DHT22;13153;52.316;21.166;2022-12-20T13:40:38;3.50;99.90
25208;DHT22;13153;52.316;21.166;2022-12-20T13:51:25;3.50;99.90
25208;DHT22;13153;52.316;21.166;2022-12-20T13:54:00;3.40;99.90
25208;DHT22;13153;52.316;21.166;2022-12-20T13:56:47;3.40;99.90
25208;DHT22;13153;52.316;21.166;2022-12-20T13:59:30;3.40;99.90
25208;DHT22;13153;52.316;21.166;2022-12-20T14:01:59;3.30;99.90
25208;DHT22;13153;52.316;21.166;2022-12-20T14:04:42;3.40;99.90
25208;DHT22;13153;52.316;21.166;2022-12-20T14:07:14;3.30;99.90
25208;DHT22;13153;52.316;21.166;2022-12-20T14:09:45;3.30;99.90
25208;DHT22;13153;52.316;21.166;2022-12-20T14:12:14;3.20;99.90
25208;DHT22;13153;52.316;21.166;2022-12-20T14:14:43;3.20;99.90
25208;DHT22;13153;52.316;21.166;2022-12-20T14:17:29;3.20;99.90
25208;DHT22;13153;52.316;21.166;2022-12-20T14:20:13;3.10;99.90
25208;DHT22;13153;52.316;21.166;2022-12-20T14:23:04;3.10;99.90
25208;DHT22;13153;52.316;21.166;2022-12-20T14:25:53;3.10;99.90
25208;DHT22;13153;52.316;21.166;2022-12-20T14:28:38;3.10;99.90
25208;DHT22;13153;52.316;21.166;2022-12-20T14:31:22;3.10;99.90
25208;DHT22;13153;52.316;21.166;2022-12-20T14:33:52;3.10;99.90
25208;DHT22;13153;52.316;21.166;2022-12-20T14:36:26;3.10;99.90
25208;DHT22;13153;52.316;21.166;2022-12-20T14:38:55;3.10;99.90
25208;DHT22;13153;52.316;21.166;2022-12-20T14:41:38;3.10;99.90
25208;DHT22;13153;52.316;21.166;2022-12-20T14:44:20;3.10;99.90
25208;DHT22;13153;52.316;21.166;2022-12-20T14:47:03;3.10;99.90
25208;DHT22;13153;52.316;21.166;2022-12-20T14:49:38;3.10;99.90
25208;DHT22;13153;52.316;21.166;2022-12-20T15:02:41;3.00;99.90
25208;DHT22;13153;52.316;21.166;2022-12-20T15:15:58;3.00;99.90
25208;DHT22;13153;52.316;21.166;2022-12-20T15:18:29;3.00;99.90
25208;DHT22;13153;52.316;21.166;2022-12-20T15:23:51;2.90;99.90
25208;DHT22;13153;52.316;21.166;2022-12-20T15:26:23;3.00;99.90
25208;DHT22;13153;52.316;21.166;2022-12-20T15:28:50;3.00;99.90
25208;DHT22;13153;52.316;21.166;2022-12-20T15:31:18;3.00;99.90
25208;DHT22;13153;52.316;21.166;2022-12-20T15:33:46;3.00;99.90
25208;DHT22;13153;52.316;21.166;2022-12-20T15:36:20;3.00;99.90
25208;DHT22;13153;52.316;21.166;2022-12-20T15:38:48;3.00;99.90
25208;DHT22;13153;52.316;21.166;2022-12-20T15:41:23;2.90;99.90
25208;DHT22;13153;52.316;21.166;2022-12-20T15:43:58;2.90;99.90
25208;DHT22;13153;52.316;21.166;2022-12-20T15:46:27;3.00;99.90
25208;DHT22;13153;52.316;21.166;2022-12-20T15:48:53;2.90;99.90
25208;DHT22;13153;52.316;21.166;2022-12-20T15:51:21;2.90;99.90
25208;DHT22;13153;52.316;21.166;2022-12-20T15:53:52;2.90;99.90
25208;DHT22;13153;52.316;21.166;2022-12-20T15:56:21;2.90;99.90
25208;DHT22;13153;52.316;21.166;2022-12-20T15:58:50;3.00;99.90
25208;DHT22;13153;52.316;21.166;2022-12-20T16:01:26;3.00;99.90
25208;DHT22;13153;52.316;21.166;2022-12-20T16:03:55;2.90;99.90
25208;DHT22;13153;52.316;21.166;2022-12-20T16:06:21;3.00;99.90
25208;DHT22;13153;52.316;21.166;2022-12-20T16:08:47;2.90;99.90
25208;DHT22;13153;52.316;21.166;2022-12-20T16:11:30;2.90;99.90
25208;DHT22;13153;52.316;21.166;2022-12-20T16:13:57;3.00;99.90
25208;DHT22;13153;52.316;21.166;2022-12-20T16:16:32;3.00;99.90
25208;DHT22;13153;52.316;21.166;2022-12-20T16:19:01;3.00;99.90
25208;DHT22;13153;52.316;21.166;2022-12-20T16:21:43;2.90;99.90
25208;DHT22;13153;52.316;21.166;2022-12-20T16:24:14;3.00;99.90
25208;DHT22;13153;52.316;21.166;2022-12-20T16:26:43;2.90;99.90
25208;DHT22;13153;52.316;21.166;2022-12-20T16:29:10;3.00;99.90
25208;DHT22;13153;52.316;21.166;2022-12-20T16:31:38;2.90;99.90
25208;DHT22;13153;52.316;21.166;2022-12-20T16:34:14;3.00;99.90
25208;DHT22;13153;52.316;21.166;2022-12-20T16:36:41;2.90;99.90
25208;DHT22;13153;52.316;21.166;2022-12-20T16:39:09;2.90;99.90
25208;DHT22;13153;52.316;21.166;2022-12-20T16:41:35;2.90;99.90
25208;DHT22;13153;52.316;21.166;2022-12-20T16:44:03;2.90;99.90
25208;DHT22;13153;52.316;21.166;2022-12-20T16:46:31;2.90;99.90
25208;DHT22;13153;52.316;21.166;2022-12-20T16:48:59;2.90;99.90
25208;DHT22;13153;52.316;21.166;2022-12-20T16:56:26;2.90;99.90
25208;DHT22;13153;52.316;21.166;2022-12-20T16:58:52;2.90;99.90
25208;DHT22;13153;52.316;21.166;2022-12-20T17:01:24;2.90;99.90
25208;DHT22;13153;52.316;21.166;2022-12-20T17:03:53;2.90;99.90
25208;DHT22;13153;52.316;21.166;2022-12-20T17:06:19;2.90;99.90
25208;DHT22;13153;52.316;21.166;2022-12-20T17:08:45;3.00;99.90
25208;DHT22;13153;52.316;21.166;2022-12-20T17:11:21;2.90;99.90
25208;DHT22;13153;52.316;21.166;2022-12-20T17:13:50;2.90;99.90
25208;DHT22;13153;52.316;21.166;2022-12-20T17:16:18;2.90;99.90
25208;DHT22;13153;52.316;21.166;2022-12-20T17:18:47;3.00;99.90
25208;DHT22;13153;52.316;21.166;2022-12-20T17:21:53;3.00;99.90
25208;DHT22;13153;52.316;21.166;2022-12-20T17:24:21;3.00;99.90
25208;DHT22;13153;52.316;21.166;2022-12-20T17:26:48;3.00;99.90
25208;DHT22;13153;52.316;21.166;2022-12-20T17:29:13;3.00;99.90
25208;DHT22;13153;52.316;21.166;2022-12-20T17:31:42;3.00;99.90
25208;DHT22;13153;52.316;21.166;2022-12-20T17:34:24;3.00;99.90
25208;DHT22;13153;52.316;21.166;2022-12-20T17:36:55;3.10;99.90
25208;DHT22;13153;52.316;21.166;2022-12-20T17:39:24;3.10;99.90
25208;DHT22;13153;52.316;21.166;2022-12-20T17:41:51;3.10;99.90
25208;DHT22;13153;52.316;21.166;2022-12-20T17:44:24;3.00;99.90
25208;DHT22;13153;52.316;21.166;2022-12-20T17:46:52;3.10;99.90
25208;DHT22;13153;52.316;21.166;2022-12-20T17:49:19;3.10;99.90
25208;DHT22;13153;52.316;21.166;2022-12-20T17:51:47;3.10;99.90
25208;DHT22;13153;52.316;21.166;2022-12-20T17:54:19;3.10;99.90
25208;DHT22;13153;52.316;21.166;2022-12-20T17:56:47;3.00;99.90
25208;DHT22;13153;52.316;21.166;2022-12-20T17:59:18;3.00;99.90
25208;DHT22;13153;52.316;21.166;2022-12-20T18:01:45;3.00;99.90
25208;DHT22;13153;52.316;21.166;2022-12-20T18:04:13;3.10;99.90
25208;DHT22;13153;52.316;21.166;2022-12-20T18:06:42;3.10;99.90
25208;DHT22;13153;52.316;21.166;2022-12-20T18:09:17;3.10;99.90
25208;DHT22;13153;52.316;21.166;2022-12-20T18:11:45;3.00;99.90
25208;DHT22;13153;52.316;21.166;2022-12-20T18:14:11;3.00;99.90
25208;DHT22;13153;52.316;21.166;2022-12-20T18:16:38;3.00;99.90
25208;DHT22;13153;52.316;21.166;2022-12-20T18:19:06;3.00;99.90
25208;DHT22;13153;52.316;21.166;2022-12-20T18:21:32;3.00;99.90